Time;durP1;ratioP1;P1;durP2;ratioP2;P2;SDS_P1;SDS_P2;PMS_P1;PMS_P2;Temp;Humidity;BMP_temperature;BMP_pressure;BME280_temperature;BME280_humidity;BME280_pressure;Samples;Min_cycle;Max_cycle;Signal;HPM_P1;HPM_P2
2022/10/21 00:02:06;;;;;;;5.75;3.40;;;;;;;14.26;51.84;100702.91;5071014;28;20035;-41
2022/10/21 00:04:32;;;;;;;5.97;3.55;;;;;;;14.21;51.85;100702.69;5071366;28;20036;-41
2022/10/21 00:06:57;;;;;;;5.30;3.40;;;;;;;14.07;52.21;100701.03;5070790;28;20178;-41
2022/10/21 00:09:23;;;;;;;9.57;3.30;;;;;;;14.20;51.89;100705.56;5070915;28;20043;-41
2022/10/21 00:11:48;;;;;;;4.70;3.38;;;;;;;14.28;51.46;100695.47;5070973;28;20452;-41
2022/10/21 00:14:14;;;;;;;7.07;3.10;;;;;;;14.35;51.67;100700.81;5069527;28;20452;-41
2022/10/21 00:16:40;;;;;;;5.95;3.30;;;;;;;14.31;51.24;100702.28;5070952;28;20059;-41
2022/10/21 00:19:06;;;;;;;5.38;2.95;;;;;;;14.16;51.79;100705.13;5071172;28;20103;-41
2022/10/21 00:21:31;;;;;;;5.80;3.30;;;;;;;14.23;51.64;100699.81;5070547;28;20136;-42
2022/10/21 00:23:56;;;;;;;6.22;3.35;;;;;;;14.36;51.33;100694.47;5070888;28;20047;-42
2022/10/21 00:26:22;;;;;;;4.82;2.88;;;;;;;14.39;50.94;100686.03;5070852;28;20037;-41
2022/10/21 00:28:47;;;;;;;8.07;3.40;;;;;;;14.43;51.24;100692.63;5070827;28;20029;-41
2022/10/21 00:31:14;;;;;;;6.70;3.47;;;;;;;14.28;51.63;100695.47;5070414;28;20035;-41
2022/10/21 00:33:40;;;;;;;6.90;3.38;;;;;;;14.19;51.41;100686.00;5071701;28;20483;-43
2022/10/21 00:36:13;;;;;;;7.35;3.55;;;;;;;14.25;51.46;100697.75;5074695;28;20051;-41
2022/10/21 00:38:38;;;;;;;6.18;3.25;;;;;;;14.13;51.60;100694.84;5074600;28;20032;-41
2022/10/21 00:41:04;;;;;;;8.18;3.78;;;;;;;14.04;52.39;100690.72;5074512;28;20034;-41
2022/10/21 00:43:30;;;;;;;6.70;3.70;;;;;;;13.92;52.38;100695.84;5074611;28;20463;-43
2022/10/21 00:46:04;;;;;;;9.02;4.05;;;;;;;13.86;52.81;100691.31;5074731;28;20020;-41
2022/10/21 00:48:41;;;;;;;7.85;3.92;;;;;;;13.92;53.01;100682.47;5074347;28;20115;-42
2022/10/21 00:51:12;;;;;;;6.28;3.58;;;;;;;13.99;52.07;100685.13;5074018;28;20025;-40
2022/10/21 00:53:41;;;;;;;5.88;3.80;;;;;;;13.87;52.13;100691.06;5074411;28;20024;-41
2022/10/21 00:56:11;;;;;;;9.60;3.70;;;;;;;13.85;52.45;100695.00;5074396;28;20021;-41
2022/10/21 00:58:37;;;;;;;5.55;3.80;;;;;;;13.57;53.25;100697.78;5074339;28;20035;-41
2022/10/21 01:01:06;;;;;;;5.45;3.65;;;;;;;13.69;52.47;100696.19;5074154;28;20020;-42
2022/10/21 01:03:33;;;;;;;5.88;3.25;;;;;;;13.91;52.58;100698.72;5073556;28;20016;-41
2022/10/21 01:06:01;;;;;;;7.68;3.70;;;;;;;13.95;51.96;100692.75;5073721;28;20424;-41
2022/10/21 01:08:27;;;;;;;5.97;3.80;;;;;;;13.97;52.12;100692.53;5073974;28;20031;-42
2022/10/21 01:10:53;;;;;;;8.23;3.67;;;;;;;13.84;52.41;100690.66;5074234;28;20388;-42
2022/10/21 01:13:34;;;;;;;7.47;4.03;;;;;;;13.64;53.14;100691.41;5074156;28;20040;-42
2022/10/21 01:16:26;;;;;;;8.13;4.10;;;;;;;13.79;52.23;100679.75;5073983;28;20054;-41
2022/10/21 01:19:01;;;;;;;8.90;4.20;;;;;;;13.70;52.93;100681.78;5074188;28;20032;-42
2022/10/21 01:21:40;;;;;;;9.07;4.20;;;;;;;13.53;53.02;100685.81;5073619;28;20045;-41
2022/10/21 01:24:12;;;;;;;9.30;4.10;;;;;;;13.55;52.86;100692.63;5074074;28;20028;-41
2022/10/21 01:26:52;;;;;;;6.75;4.18;;;;;;;13.45;53.31;100702.88;5073827;28;20032;-41
2022/10/21 01:29:49;;;;;;;9.00;4.22;;;;;;;13.47;53.27;100693.63;5073713;28;20048;-42
2022/10/21 01:32:17;;;;;;;8.77;4.07;;;;;;;13.48;53.15;100697.13;5073947;28;20050;-42
2022/10/21 01:35:18;;;;;;;7.95;4.25;;;;;;;13.40;53.42;100691.94;5073685;28;20085;-42
2022/10/21 01:37:49;;;;;;;6.50;4.00;;;;;;;13.26;53.82;100693.69;5073752;28;20021;-41
2022/10/21 01:40:24;;;;;;;6.20;3.80;;;;;;;13.17;53.85;100701.03;5073538;28;20099;-41
2022/10/21 01:42:55;;;;;;;5.75;4.00;;;;;;;13.00;54.34;100697.03;5073305;28;20093;-42
2022/10/21 01:45:21;;;;;;;9.20;4.20;;;;;;;13.01;54.20;100694.19;5072702;28;20021;-41
2022/10/21 01:47:52;;;;;;;6.88;4.28;;;;;;;13.18;54.04;100696.53;5073013;28;20025;-41
2022/10/21 01:50:28;;;;;;;7.15;4.20;;;;;;;13.08;54.32;100702.25;5073842;28;20411;-41
2022/10/21 01:52:58;;;;;;;7.43;4.30;;;;;;;13.14;54.42;100704.13;5073554;28;20064;-42
2022/10/21 01:55:28;;;;;;;7.95;4.38;;;;;;;12.97;54.80;100695.59;5073894;28;20414;-43
2022/10/21 01:57:58;;;;;;;;;;;;;;;13.21;54.32;100702.31;5073837;28;20100;-40
2022/10/21 02:00:24;;;;;;;7.63;4.05;;;;;;;13.11;54.40;100699.16;5073480;28;19938;-40
2022/10/21 02:02:50;;;;;;;8.52;4.22;;;;;;;13.11;53.67;100704.50;5073005;28;20032;-40
2022/10/21 02:05:22;;;;;;;6.78;4.20;;;;;;;13.10;54.21;100700.19;5073093;28;20047;-40
2022/10/21 02:07:48;;;;;;;6.45;3.65;;;;;;;13.07;54.13;100704.06;5072952;28;20039;-40
2022/10/21 02:10:16;;;;;;;9.95;4.20;;;;;;;13.07;54.01;100703.25;5073440;28;20024;-41
2022/10/21 02:12:44;;;;;;;6.55;3.90;;;;;;;13.17;54.36;100710.91;5073144;28;20028;-41
2022/10/21 02:15:12;;;;;;;7.95;4.10;;;;;;;12.99;54.16;100711.44;5072906;28;20036;-41
2022/10/21 02:17:43;;;;;;;8.95;4.28;;;;;;;13.13;54.00;100713.16;5073164;28;20025;-41
2022/10/21 02:20:11;;;;;;;9.52;4.63;;;;;;;13.29;53.41;100718.19;5072848;28;20039;-41
2022/10/21 02:22:39;;;;;;;8.00;4.13;;;;;;;13.15;53.90;100711.09;5072689;28;20084;-41
2022/10/21 02:25:13;;;;;;;8.32;4.60;;;;;;;13.14;53.76;100714.00;5072742;28;20025;-41
2022/10/21 02:27:39;;;;;;;8.02;5.00;;;;;;;13.11;53.65;100721.34;5072986;28;20093;-41
2022/10/21 02:30:05;;;;;;;8.88;4.72;;;;;;;13.12;53.99;100719.53;5073088;28;20451;-41
2022/10/21 02:33:05;;;;;;;7.53;4.65;;;;;;;13.17;54.34;100718.94;5072529;28;20101;-40
2022/10/21 02:35:51;;;;;;;8.13;4.85;;;;;;;13.34;53.41;100719.47;5072085;28;20132;-41
2022/10/21 02:38:37;;;;;;;10.57;4.70;;;;;;;13.45;53.17;100725.06;5072520;28;20039;-41
2022/10/21 02:41:06;;;;;;;11.13;4.35;;;;;;;13.30;53.21;100727.88;5072497;28;20037;-40
2022/10/21 02:43:41;;;;;;;7.70;4.70;;;;;;;13.30;53.54;100722.53;5072774;28;20024;-41
2022/10/21 02:46:09;;;;;;;11.98;4.80;;;;;;;13.43;53.17;100723.63;5072513;28;20032;-41
2022/10/21 02:48:37;;;;;;;7.32;4.90;;;;;;;13.47;52.63;100732.91;5072554;28;20103;-41
2022/10/21 02:51:05;;;;;;;8.63;4.72;;;;;;;13.40;53.39;100732.88;5072447;28;20029;-41
2022/10/21 02:53:30;;;;;;;7.40;4.72;;;;;;;13.37;53.54;100735.13;5072041;28;20036;-41
2022/10/21 02:55:56;;;;;;;8.23;4.90;;;;;;;13.35;53.35;100738.00;5071710;28;20020;-40
2022/10/21 02:58:21;;;;;;;10.00;5.15;;;;;;;13.51;53.12;100738.69;5071957;28;20046;-40
2022/10/21 03:00:47;;;;;;;10.93;5.05;;;;;;;13.61;52.96;100741.81;5071068;28;20032;-43
2022/10/21 03:03:12;;;;;;;10.90;5.13;;;;;;;13.47;52.91;100740.94;5071550;28;20461;-42
2022/10/21 03:05:38;;;;;;;10.95;4.90;;;;;;;13.41;53.70;100733.72;5070710;28;20083;-41
2022/10/21 03:08:03;;;;;;;8.95;4.80;;;;;;;13.38;53.76;100742.09;5071878;28;20036;-41
2022/10/21 03:10:29;;;;;;;10.00;5.18;;;;;;;13.34;53.50;100752.38;5071777;28;20028;-41
2022/10/21 03:12:54;;;;;;;9.02;4.88;;;;;;;13.40;53.67;100748.94;5071488;28;20549;-41
2022/10/21 03:15:20;;;;;;;12.48;5.13;;;;;;;13.44;53.30;100746.66;5071514;28;20056;-41
2022/10/21 03:17:46;;;;;;;11.93;5.43;;;;;;;13.38;53.50;100734.91;5071677;28;20027;-41
2022/10/21 03:20:11;;;;;;;14.02;5.57;;;;;;;13.28;53.47;100748.59;5071832;28;20052;-41
2022/10/21 03:22:37;;;;;;;11.13;5.82;;;;;;;13.24;53.71;100747.34;5071255;28;20152;-41
2022/10/21 03:25:03;;;;;;;12.07;5.40;;;;;;;13.27;53.94;100744.28;5071760;28;20028;-41
2022/10/21 03:27:29;;;;;;;10.27;5.25;;;;;;;13.21;54.04;100738.91;5071502;28;20040;-41
2022/10/21 03:29:54;;;;;;;9.95;5.25;;;;;;;13.38;53.41;100740.25;5071626;28;20024;-41
2022/10/21 03:32:20;;;;;;;12.27;5.50;;;;;;;13.36;53.54;100739.63;5071625;28;20024;-41
2022/10/21 03:34:45;;;;;;;14.98;5.78;;;;;;;13.38;53.77;100742.94;5071300;28;20384;-41
2022/10/21 03:37:11;;;;;;;12.43;5.70;;;;;;;13.42;53.36;100743.34;5071222;28;20406;-41
2022/10/21 03:39:36;;;;;;;9.90;5.00;;;;;;;13.11;54.10;100734.72;5071431;28;20105;-41
2022/10/21 03:42:02;;;;;;;18.98;5.90;;;;;;;13.23;54.21;100739.53;5071370;28;20108;-41
2022/10/21 03:44:27;;;;;;;14.85;5.90;;;;;;;13.20;54.33;100743.41;5070050;28;20461;-41
2022/10/21 03:46:53;;;;;;;12.90;6.45;;;;;;;13.25;53.58;100745.50;5071303;28;20035;-41
2022/10/21 03:49:18;;;;;;;12.50;5.88;;;;;;;13.31;54.04;100747.44;5071101;28;20021;-41
2022/10/21 03:51:43;;;;;;;10.38;6.18;;;;;;;13.22;54.09;100749.41;5071263;28;20024;-41
2022/10/21 03:54:09;;;;;;;12.20;5.25;;;;;;;13.02;54.52;100745.75;5071241;28;20025;-45
2022/10/21 03:56:34;;;;;;;10.68;5.80;;;;;;;13.12;54.51;100748.94;5071794;28;20024;-43
2022/10/21 03:59:00;;;;;;;10.93;5.50;;;;;;;13.15;54.26;100753.88;5071600;28;20108;-43
2022/10/21 04:01:25;;;;;;;11.65;5.30;;;;;;;13.13;58.73;100757.78;5071993;28;20024;-43
2022/10/21 04:03:51;;;;;;;13.98;6.85;;;;;;;13.90;58.57;100751.41;5071916;28;20028;-44
2022/10/21 04:06:16;;;;;;;19.70;8.75;;;;;;;13.97;54.46;100756.75;5071509;28;20409;-41
2022/10/21 04:08:42;;;;;;;21.42;8.25;;;;;;;13.71;53.82;100752.97;5071067;28;20020;-43
2022/10/21 04:11:07;;;;;;;24.27;9.82;;;;;;;13.37;54.23;100751.16;5071041;28;20047;-42
2022/10/21 04:13:33;;;;;;;31.35;19.48;;;;;;;13.37;54.36;100751.16;5071079;28;20028;-42
2022/10/21 04:16:04;;;;;;;16.10;9.82;;;;;;;13.30;54.40;100759.13;5071245;28;20065;-43
2022/10/21 04:18:30;;;;;;;15.63;8.02;;;;;;;13.26;54.04;100755.19;5071328;28;20070;-42
2022/10/21 04:20:55;;;;;;;17.65;6.60;;;;;;;13.29;53.64;100754.78;5070193;28;20206;-43
2022/10/21 04:23:21;;;;;;;12.07;6.70;;;;;;;13.22;56.02;100759.28;5070805;28;20472;-42
2022/10/21 04:25:47;;;;;;;12.95;7.25;;;;;;;13.19;54.59;100749.78;5075617;28;20039;-42
2022/10/21 04:28:12;;;;;;;9.68;6.30;;;;;;;13.33;53.71;100757.91;5091264;28;20121;-42
2022/10/21 04:30:38;;;;;;;15.13;6.82;;;;;;;13.35;53.50;100759.38;5076171;28;20445;-42
2022/10/21 04:33:03;;;;;;;17.15;6.80;;;;;;;13.15;53.83;100753.06;5071211;28;20278;-42
2022/10/21 04:35:29;;;;;;;17.42;5.93;;;;;;;13.19;57.80;100752.44;5061097;28;20033;-42
2022/10/21 04:37:54;;;;;;;12.80;6.60;;;;;;;13.25;54.35;100749.00;5063495;28;20029;-42
2022/10/21 04:40:19;;;;;;;15.82;7.82;;;;;;;13.25;53.25;100756.19;5060060;28;20483;-43
2022/10/21 04:42:49;;;;;;;14.68;6.88;;;;;;;13.26;53.89;100756.00;5051088;28;20061;-42
2022/10/21 04:45:15;;;;;;;16.58;7.32;;;;;;;13.36;53.13;100761.00;5051002;28;20153;-42
2022/10/21 04:47:41;;;;;;;15.05;7.00;;;;;;;13.31;53.44;100755.44;5050552;28;20036;-42
2022/10/21 04:50:07;;;;;;;13.43;7.97;;;;;;;13.23;53.39;100756.41;5050326;28;20029;-42
2022/10/21 04:52:32;;;;;;;14.30;7.47;;;;;;;13.21;54.29;100758.44;5050260;28;20100;-42
2022/10/21 04:54:57;;;;;;;14.25;7.82;;;;;;;13.30;53.39;100756.47;5050696;28;20017;-42
2022/10/21 04:57:23;;;;;;;26.42;14.10;;;;;;;13.15;54.00;100751.19;5049867;28;20028;-43
2022/10/21 04:59:48;;;;;;;32.67;18.60;;;;;;;13.26;53.81;100757.84;5064237;28;20016;-42
2022/10/21 05:02:14;;;;;;;45.13;23.85;;;;;;;13.41;53.48;100758.59;5076563;28;20029;-43
2022/10/21 05:04:39;;;;;;;28.80;15.10;;;;;;;13.36;54.14;100762.88;5071621;28;20028;-44
2022/10/21 05:07:05;;;;;;;24.95;12.85;;;;;;;13.38;54.05;100758.16;5070124;28;20396;-43
2022/10/21 05:09:30;;;;;;;18.10;10.95;;;;;;;13.35;54.62;100770.06;5070076;28;20086;-42
2022/10/21 05:11:56;;;;;;;22.80;8.90;;;;;;;13.47;53.68;100773.00;5069652;28;20037;-42
2022/10/21 05:14:21;;;;;;;23.70;9.57;;;;;;;13.62;52.78;100770.22;5069360;28;20025;-42
2022/10/21 05:16:47;;;;;;;16.60;8.45;;;;;;;13.64;52.46;100776.19;5069224;28;20115;-43
2022/10/21 05:19:12;;;;;;;21.55;10.73;;;;;;;13.58;52.47;100779.66;5071255;28;20020;-44
2022/10/21 05:21:38;;;;;;;42.20;19.20;;;;;;;13.45;52.96;100775.06;5072308;28;20074;-43
2022/10/21 05:24:04;;;;;;;26.42;12.00;;;;;;;13.49;53.63;100785.16;5073360;28;20035;-43
2022/10/21 05:26:29;;;;;;;23.73;9.55;;;;;;;13.50;53.83;100786.00;5073362;28;20024;-43
2022/10/21 05:28:56;;;;;;;20.15;9.75;;;;;;;13.44;54.78;100784.94;5073771;28;20158;-42
2022/10/21 05:31:22;;;;;;;18.88;9.07;;;;;;;13.76;60.21;100792.50;5073367;28;20028;-42
2022/10/21 05:33:47;;;;;;;25.05;9.98;;;;;;;13.89;54.41;100795.22;5073692;28;20403;-43
2022/10/21 05:36:12;;;;;;;20.02;9.45;;;;;;;13.92;53.89;100796.66;5073342;28;20095;-42
2022/10/21 05:38:38;;;;;;;17.58;8.85;;;;;;;14.08;53.00;100801.69;5073107;28;20013;-41
2022/10/21 05:41:04;;;;;;;18.02;9.18;;;;;;;13.97;52.81;100805.75;5056440;28;20036;-42
2022/10/21 05:43:29;;;;;;;16.58;7.78;;;;;;;13.42;53.96;100796.84;5053238;28;20053;-42
2022/10/21 05:45:55;;;;;;;18.27;8.30;;;;;;;13.56;53.48;100809.28;5052171;28;20025;-42
2022/10/21 05:48:20;;;;;;;16.00;7.95;;;;;;;13.73;53.35;100814.28;5052515;28;20083;-42
2022/10/21 05:50:47;;;;;;;13.50;7.85;;;;;;;13.99;52.44;100814.44;5074139;28;20016;-42
2022/10/21 05:53:13;;;;;;;16.02;6.70;;;;;;;14.21;51.62;100814.28;5093386;28;20441;-42
2022/10/21 05:55:38;;;;;;;12.13;6.53;;;;;;;14.30;51.57;100817.59;5092902;28;20024;-41
2022/10/21 05:58:04;;;;;;;18.40;8.05;;;;;;;14.39;50.77;100813.72;5092196;28;20398;-43
2022/10/21 06:00:29;;;;;;;17.50;7.93;;;;;;;14.39;51.48;100821.75;5091679;28;20504;-42
2022/10/21 06:02:55;;;;;;;16.83;7.75;;;;;;;14.30;51.25;100817.59;5091347;28;20035;-43
2022/10/21 06:05:20;;;;;;;15.35;7.03;;;;;;;14.44;51.19;100822.78;5092253;28;20024;-43
2022/10/21 06:07:46;;;;;;;18.02;7.68;;;;;;;14.59;50.51;100824.50;5092123;28;20024;-43
2022/10/21 06:10:12;;;;;;;19.50;7.43;;;;;;;14.71;50.30;100817.50;5091728;28;20388;-42
2022/10/21 06:12:38;;;;;;;14.02;6.28;;;;;;;14.77;50.25;100827.41;5091129;28;20028;-41
2022/10/21 06:15:04;;;;;;;17.30;5.70;;;;;;;14.66;50.49;100822.69;5091092;28;20028;-43
2022/10/21 06:17:29;;;;;;;11.23;5.15;;;;;;;14.79;50.58;100820.00;5090788;28;20024;-42
2022/10/21 06:19:55;;;;;;;18.45;6.63;;;;;;;14.94;49.67;100822.47;5090984;28;20027;-42
2022/10/21 06:22:20;;;;;;;14.05;5.97;;;;;;;15.05;49.49;100831.75;5090676;28;20056;-42
2022/10/21 06:24:46;;;;;;;16.15;6.93;;;;;;;15.19;49.08;100833.41;5089985;28;20031;-42
2022/10/21 06:27:12;;;;;;;12.05;6.25;;;;;;;15.20;49.62;100831.56;5092397;28;20103;-42
2022/10/21 06:29:38;;;;;;;16.77;6.43;;;;;;;15.27;49.57;100823.47;5092587;28;20110;-43
2022/10/21 06:32:03;;;;;;;12.93;6.05;;;;;;;15.35;48.87;100824.09;5092374;28;20166;-42
2022/10/21 06:34:29;;;;;;;14.43;6.38;;;;;;;15.58;48.10;100820.97;5092843;28;20103;-42
2022/10/21 06:36:54;;;;;;;14.98;6.45;;;;;;;15.57;48.67;100830.06;5092349;28;20372;-42
2022/10/21 06:39:20;;;;;;;16.40;6.47;;;;;;;15.47;48.35;100828.84;5092286;28;20020;-42
2022/10/21 06:41:45;;;;;;;12.82;5.50;;;;;;;15.46;49.24;100836.06;5092687;28;20463;-42
2022/10/21 06:44:10;;;;;;;16.65;5.75;;;;;;;15.60;47.93;100834.16;5092579;28;20027;-43
2022/10/21 06:46:36;;;;;;;14.98;5.60;;;;;;;15.58;48.58;100830.88;5091911;28;20028;-43
2022/10/21 06:49:01;;;;;;;15.13;6.93;;;;;;;15.21;50.44;100838.53;5092085;28;20107;-43
2022/10/21 06:51:28;;;;;;;13.02;6.18;;;;;;;15.77;49.09;100837.25;5092372;28;20066;-43
2022/10/21 06:53:56;;;;;;;44.53;25.40;;;;;;;15.98;48.53;100838.84;5092109;28;20020;-42
2022/10/21 06:56:23;;;;;;;20.00;11.50;;;;;;;16.28;47.76;100839.13;5091973;28;20020;-42
2022/10/21 06:58:49;;;;;;;16.35;7.03;;;;;;;16.46;47.65;100837.56;5091880;28;20024;-42
2022/10/21 07:01:18;;;;;;;20.27;8.45;;;;;;;16.77;46.82;100839.41;5091663;28;20456;-42
2022/10/21 07:03:43;;;;;;;18.30;8.20;;;;;;;16.84;45.71;100844.81;5091679;28;20110;-43
2022/10/21 07:06:09;;;;;;;36.75;15.63;;;;;;;16.75;46.69;100841.50;5091519;28;20111;-43
2022/10/21 07:08:34;;;;;;;35.17;14.85;;;;;;;16.44;47.02;100837.78;5091423;28;20050;-42
2022/10/21 07:11:00;;;;;;;36.97;16.25;;;;;;;16.19;48.25;100835.03;5091357;28;20066;-43
2022/10/21 07:13:26;;;;;;;41.67;16.70;;;;;;;16.46;48.13;100834.88;5091764;28;20032;-43
2022/10/21 07:16:15;;;;;;;39.38;15.88;;;;;;;16.21;48.00;100832.94;5091833;28;20035;-43
2022/10/21 07:18:41;;;;;;;38.85;15.85;;;;;;;16.28;48.41;100839.13;5091587;28;20037;-44
2022/10/21 07:21:09;;;;;;;38.53;15.38;;;;;;;16.50;47.57;100833.41;5091309;28;20043;-43
2022/10/21 07:23:35;;;;;;;32.92;15.00;;;;;;;16.41;47.59;100831.00;5091457;28;20035;-43
2022/10/21 07:26:05;;;;;;;38.17;15.15;;;;;;;16.83;46.45;100833.22;5091366;28;20396;-43
2022/10/21 07:28:31;;;;;;;37.97;15.45;;;;;;;17.23;46.22;100835.59;5091300;28;20051;-43
2022/10/21 07:30:56;;;;;;;35.45;15.00;;;;;;;17.06;46.64;100829.94;5091141;28;20149;-44
2022/10/21 07:33:22;;;;;;;26.65;12.40;;;;;;;17.45;45.24;100830.59;5089870;28;20079;-44
2022/10/21 07:35:47;;;;;;;31.55;12.23;;;;;;;17.50;44.80;100827.25;5090854;28;20036;-44
2022/10/21 07:38:13;;;;;;;28.05;12.05;;;;;;;17.03;45.76;100824.19;5090778;28;20027;-43
2022/10/21 07:40:41;;;;;;;26.80;11.48;;;;;;;17.28;45.92;100832.22;5091060;28;20055;-46
2022/10/21 07:43:07;;;;;;;34.20;13.98;;;;;;;18.07;43.84;100817.09;5090414;28;20028;-44
2022/10/21 07:45:37;;;;;;;29.23;12.45;;;;;;;17.93;44.19;100821.84;5090880;28;20030;-44
2022/10/21 07:48:02;;;;;;;31.23;13.05;;;;;;;18.52;43.12;100823.94;5088875;28;20035;-45
2022/10/21 07:50:28;;;;;;;29.85;11.98;;;;;;;18.87;42.01;100818.66;5090852;28;20024;-42
2022/10/21 07:52:53;;;;;;;22.33;11.30;;;;;;;18.81;42.60;100830.38;5090569;28;20043;-42
2022/10/21 07:55:18;;;;;;;23.38;11.18;;;;;;;19.50;41.47;100821.72;5090530;28;20489;-42
2022/10/21 07:57:44;;;;;;;28.73;11.57;;;;;;;19.56;40.88;100818.09;5090620;28;20384;-44
2022/10/21 08:00:10;;;;;;;17.45;10.20;;;;;;;19.67;40.76;100824.53;5090599;28;20016;-41
2022/10/21 08:02:36;;;;;;;16.42;9.38;;;;;;;20.06;39.86;100822.09;5090922;28;20028;-42
2022/10/21 08:05:02;;;;;;;20.67;9.73;;;;;;;20.71;38.83;100826.28;5090528;28;20089;-43
2022/10/21 08:07:30;;;;;;;18.98;9.40;;;;;;;20.17;38.37;100823.13;5090468;28;20138;-43
2022/10/21 08:09:56;;;;;;;21.63;9.15;;;;;;;20.14;38.95;100831.72;5090662;28;20479;-41
2022/10/21 08:12:22;;;;;;;13.25;8.15;;;;;;;21.05;37.88;100823.59;5090178;28;20024;-42
2022/10/21 08:14:48;;;;;;;17.58;7.93;;;;;;;21.77;36.16;100820.03;5090574;28;20020;-45
2022/10/21 08:17:13;;;;;;;16.98;8.63;;;;;;;21.64;36.89;100818.50;5073508;28;20019;-42
2022/10/21 08:19:39;;;;;;;15.13;8.10;;;;;;;21.59;36.68;100815.75;5069748;28;20016;-42
2022/10/21 08:22:05;;;;;;;15.77;7.97;;;;;;;22.31;35.69;100821.22;5069910;28;20051;-44
2022/10/21 08:24:30;;;;;;;13.02;7.93;;;;;;;22.05;35.98;100827.16;5069843;28;20032;-41
2022/10/21 08:26:56;;;;;;;12.18;7.82;;;;;;;22.80;34.57;100823.84;5069653;28;20373;-42
2022/10/21 08:29:21;;;;;;;12.27;7.75;;;;;;;23.04;34.17;100818.91;5069681;28;20020;-44
2022/10/21 08:31:47;;;;;;;16.85;7.55;;;;;;;22.81;34.52;100826.28;5069782;28;20526;-43
2022/10/21 08:34:12;;;;;;;12.00;7.40;;;;;;;23.03;33.96;100817.25;5070280;28;20019;-42
2022/10/21 08:36:38;;;;;;;11.82;7.40;;;;;;;23.29;33.49;100812.81;5069981;28;20063;-42
2022/10/21 08:39:04;;;;;;;15.07;7.57;;;;;;;23.28;33.47;100808.47;5070138;28;20046;-42
2022/10/21 08:41:29;;;;;;;12.10;7.20;;;;;;;23.51;33.27;100811.84;5070483;28;20025;-42
2022/10/21 08:44:09;;;;;;;11.15;7.32;;;;;;;23.30;33.54;100810.91;5069979;28;20038;-42
2022/10/21 08:46:43;;;;;;;15.98;9.10;;;;;;;22.77;33.66;100813.50;5069126;28;20028;-43
2022/10/21 08:49:27;;;;;;;12.85;7.90;;;;;;;22.91;34.03;100808.47;5068153;28;20012;-41
2022/10/21 08:52:15;;;;;;;14.07;7.90;;;;;;;23.27;33.69;100811.47;5068405;28;20477;-44
2022/10/21 08:54:47;;;;;;;13.65;7.65;;;;;;;23.52;33.00;100818.94;5070720;28;20030;-42
2022/10/21 08:57:12;;;;;;;13.43;7.78;;;;;;;23.73;32.52;100812.50;5053527;28;20037;-43
2022/10/21 08:59:40;;;;;;;11.50;7.82;;;;;;;23.89;32.31;100807.97;5053534;28;20082;-43
2022/10/21 09:02:12;;;;;;;13.50;8.00;;;;;;;24.40;31.85;100804.56;5066087;28;20028;-44
2022/10/21 09:05:05;;;;;;;11.48;8.00;;;;;;;24.34;31.13;100803.72;5073772;28;20048;-42
2022/10/21 09:07:58;;;;;;;13.88;8.13;;;;;;;24.11;31.50;100796.88;5073000;28;20123;-45
2022/10/21 09:10:26;;;;;;;12.52;8.20;;;;;;;23.84;31.67;100791.66;5071666;28;20111;-44
2022/10/21 09:13:25;;;;;;;15.82;8.73;;;;;;;23.99;31.86;100786.25;5073341;28;20467;-43
2022/10/21 09:15:53;;;;;;;13.82;8.10;;;;;;;22.64;33.72;100790.34;5050470;28;20040;-44
2022/10/21 09:18:46;;;;;;;11.75;8.68;;;;;;;21.65;35.00;100784.13;5071537;28;20091;-43
2022/10/21 09:21:30;;;;;;;12.45;8.52;;;;;;;21.32;36.17;100780.41;5071762;28;20059;-42
2022/10/21 09:24:10;;;;;;;14.77;8.32;;;;;;;22.01;35.02;100779.94;5071412;28;20090;-44
2022/10/21 09:26:43;;;;;;;14.65;9.23;;;;;;;22.56;34.39;100779.94;5071165;28;20032;-42
2022/10/21 09:29:21;;;;;;;16.92;8.60;;;;;;;22.42;34.94;100779.56;5070982;28;20115;-42
2022/10/21 09:31:47;;;;;;;12.13;8.40;;;;;;;21.70;35.73;100773.34;5071791;28;20020;-42
2022/10/21 09:34:30;;;;;;;13.63;8.90;;;;;;;22.47;34.92;100779.63;5071182;28;20025;-43
2022/10/21 09:36:58;;;;;;;14.60;8.82;;;;;;;22.72;34.15;100770.88;5071756;28;20012;-41
2022/10/21 09:39:35;;;;;;;13.40;8.50;;;;;;;22.41;34.84;100773.31;5072791;28;20028;-43
2022/10/21 09:42:00;;;;;;;12.45;8.43;;;;;;;22.59;34.51;100766.69;5073225;28;20020;-45
2022/10/21 09:44:26;;;;;;;12.73;8.68;;;;;;;23.22;33.39;100764.16;5073397;28;20024;-44
2022/10/21 09:46:52;;;;;;;13.98;8.55;;;;;;;23.52;32.88;100770.03;5072794;28;20032;-43
2022/10/21 09:49:28;;;;;;;12.05;8.40;;;;;;;23.92;32.33;100765.84;5072655;28;20044;-42
2022/10/21 09:51:58;;;;;;;14.85;8.60;;;;;;;23.71;32.42;100762.22;5072531;28;20044;-43
2022/10/21 09:54:28;;;;;;;16.92;9.25;;;;;;;23.63;32.20;100744.53;5073050;28;20528;-44
2022/10/21 09:57:13;;;;;;;16.17;9.52;;;;;;;23.29;32.82;100755.00;5073111;28;20477;-43
2022/10/21 09:59:52;;;;;;;12.10;9.23;;;;;;;22.10;34.88;100755.09;5073080;28;20476;-43
2022/10/21 10:02:25;;;;;;;16.30;8.85;;;;;;;22.77;34.10;100751.09;5072670;28;20027;-43
2022/10/21 10:04:51;;;;;;;17.48;8.98;;;;;;;21.96;34.80;100743.84;5072222;28;20457;-43
2022/10/21 10:07:30;;;;;;;15.10;8.88;;;;;;;22.86;34.05;100740.56;5072111;28;20103;-43
2022/10/21 10:09:56;;;;;;;16.90;9.27;;;;;;;23.49;33.08;100727.91;5072306;28;20027;-42
2022/10/21 10:12:24;;;;;;;16.23;8.80;;;;;;;23.59;32.88;100721.72;5072328;28;20025;-41
2022/10/21 10:14:50;;;;;;;16.17;9.30;;;;;;;23.51;32.83;100717.59;5072578;28;20028;-45
2022/10/21 10:17:38;;;;;;;13.98;9.32;;;;;;;24.06;31.65;100719.94;5072859;28;20036;-43
2022/10/21 10:20:04;;;;;;;14.35;8.63;;;;;;;24.00;31.58;100709.06;5072126;28;20016;-42
2022/10/21 10:22:37;;;;;;;13.48;9.55;;;;;;;23.78;31.63;100709.28;5071854;28;20559;-42
2022/10/21 10:25:24;;;;;;;15.20;9.05;;;;;;;23.64;32.62;100702.69;5072049;28;20064;-43
2022/10/21 10:28:09;;;;;;;11.90;8.80;;;;;;;22.90;33.91;100704.50;5071951;28;20021;-43
2022/10/21 10:30:40;;;;;;;13.05;9.57;;;;;;;22.78;33.49;100695.75;5071693;28;20020;-43
2022/10/21 10:33:15;;;;;;;12.32;9.20;;;;;;;23.45;33.03;100691.50;5071673;28;20029;-43
2022/10/21 10:36:02;;;;;;;19.25;9.30;;;;;;;22.28;34.72;100691.59;5066055;28;20037;-38
2022/10/21 10:38:34;;;;;;;16.77;9.40;;;;;;;22.39;34.02;100690.59;5042342;28;20031;-43
2022/10/21 10:41:13;;;;;;;14.48;9.35;;;;;;;22.43;34.94;100680.88;5058561;28;20051;-41
2022/10/21 10:43:52;;;;;;;19.40;9.18;;;;;;;22.97;33.67;100671.72;5068740;28;20146;-43
2022/10/21 10:46:26;;;;;;;19.92;9.90;;;;;;;22.42;34.73;100676.53;5060143;28;20024;-39
2022/10/21 10:48:53;;;;;;;15.00;9.50;;;;;;;22.93;33.75;100667.91;5067392;28;20032;-37
2022/10/21 10:51:33;;;;;;;14.38;9.43;;;;;;;23.45;32.83;100674.38;5072055;28;20095;-37
2022/10/21 10:54:01;;;;;;;;;;;;;;;23.71;32.47;100672.56;5072294;28;20020;-42
2022/10/21 10:56:39;;;;;;;13.57;9.00;;;;;;;24.12;31.84;100661.75;5071141;28;19915;-43
2022/10/21 10:59:13;;;;;;;15.15;10.00;;;;;;;24.51;31.36;100661.22;5069809;28;20406;-43
2022/10/21 11:01:53;;;;;;;17.33;9.82;;;;;;;24.22;31.43;100656.34;5055854;28;20024;-43
2022/10/21 11:04:32;;;;;;;16.53;9.87;;;;;;;24.15;31.51;100651.16;5052402;28;20055;-43
2022/10/21 11:07:20;;;;;;;13.55;9.40;;;;;;;24.63;31.22;100650.88;5058784;28;20111;-43
2022/10/21 11:09:50;;;;;;;14.15;9.32;;;;;;;24.88;30.64;100638.28;5069723;28;20031;-45
2022/10/21 11:12:22;;;;;;;13.80;9.35;;;;;;;25.33;29.81;100639.22;5050404;28;20036;-42
2022/10/21 11:14:53;;;;;;;14.25;8.70;;;;;;;24.43;31.00;100639.97;5056508;28;20051;-46
2022/10/21 11:17:25;;;;;;;12.63;9.30;;;;;;;24.53;31.31;100638.09;5069989;28;20070;-43
2022/10/21 11:19:56;;;;;;;14.70;8.77;;;;;;;24.55;31.12;100627.75;5070704;28;20107;-43
2022/10/21 11:22:30;;;;;;;15.93;9.32;;;;;;;24.83;30.91;100628.25;5062931;28;20053;-37
2022/10/21 11:25:03;;;;;;;12.38;7.93;;;;;;;24.45;30.57;100622.31;5051113;28;20107;-37
2022/10/21 11:27:47;;;;;;;11.32;8.43;;;;;;;24.11;30.81;100622.88;5069275;28;20028;-37
2022/10/21 11:30:18;;;;;;;14.35;8.75;;;;;;;23.83;31.13;100618.81;5069860;28;20020;-37